Time,TemperatureF,DewpointF,PressureIn,WindDirection,WindDirectionDegrees,WindSpeedMPH,WindSpeedGustMPH,Humidity,HourlyPrecipIn,Conditions,Clouds,dailyrainin,SoftwareType,DateUTC
2013-06-21 00:01:00,76.7,60.8,29.64,South,180,1.8,3.4,58,0.00,,,0.00,WUHU216HW,2013-06-21 05:01:00,
2013-06-21 00:06:00,76.7,60.8,29.65,ESE,113,1.8,2.5,58,0.00,,,0.00,WUHU216HW,2013-06-21 05:06:00,
2013-06-21 00:11:00,76.7,60.8,29.64,SE,135,1.6,2.9,58,0.00,,,0.00,WUHU216HW,2013-06-21 05:11:00,
2013-06-21 00:16:00,76.5,61.1,29.64,SE,135,1.8,2.9,59,0.00,,,0.00,WUHU216HW,2013-06-21 05:16:00,
2013-06-21 00:21:00,76.7,61.7,29.64,ESE,113,2.5,3.4,60,0.00,,,0.00,WUHU216HW,2013-06-21 05:21:00,
2013-06-21 00:26:00,77.8,62.3,29.64,SSE,158,2.5,3.4,59,0.00,,,0.00,WUHU216HW,2013-06-21 05:26:00,
2013-06-21 00:31:00,77.8,61.3,29.64,SE,135,1.1,2.7,57,0.00,,,0.00,WUHU216HW,2013-06-21 05:31:00,
2013-06-21 00:36:00,76.9,61.5,29.64,SE,135,1.8,2.7,59,0.00,,,0.00,WUHU216HW,2013-06-21 05:36:00,
2013-06-21 00:41:00,76.3,61.5,29.64,SE,135,1.3,3.4,60,0.00,,,0.00,WUHU216HW,2013-06-21 05:41:00,
2013-06-21 00:46:00,76.0,61.1,29.64,ENE,68,1.3,3.4,60,0.00,,,0.00,WUHU216HW,2013-06-21 05:46:00,
2013-06-21 00:51:00,75.8,61.4,29.64,SE,135,2.2,2.5,61,0.00,,,0.00,WUHU216HW,2013-06-21 05:51:00,
2013-06-21 00:56:00,75.4,61.1,29.64,SE,135,1.3,2.5,61,0.00,,,0.00,WUHU216HW,2013-06-21 05:56:00,
2013-06-21 01:01:00,75.2,61.4,29.64,SE,135,1.6,2.9,62,0.00,,,0.00,WUHU216HW,2013-06-21 06:01:00,
2013-06-21 01:06:00,75.1,61.6,29.64,SE,135,2.2,2.9,63,0.00,,,0.00,WUHU216HW,2013-06-21 06:06:00,
2013-06-21 01:11:00,74.9,61.5,29.64,ESE,113,1.6,3.1,63,0.00,,,0.00,WUHU216HW,2013-06-21 06:11:00,
2013-06-21 01:16:00,74.9,61.5,29.64,SE,135,3.1,3.1,63,0.00,,,0.00,WUHU216HW,2013-06-21 06:16:00,
2013-06-21 01:21:00,74.7,61.7,29.64,SE,135,0.4,3.1,64,0.00,,,0.00,WUHU216HW,2013-06-21 06:21:00,
2013-06-21 01:26:00,74.5,61.6,29.64,SE,135,1.6,2.9,64,0.00,,,0.00,WUHU216HW,2013-06-21 06:26:00,
2013-06-21 01:31:00,74.5,61.6,29.63,ESE,113,1.6,2.5,64,0.00,,,0.00,WUHU216HW,2013-06-21 06:31:00,
2013-06-21 01:36:00,74.5,61.9,29.64,SE,135,2.5,2.5,65,0.00,,,0.00,WUHU216HW,2013-06-21 06:36:00,
2013-06-21 01:41:00,74.3,61.8,29.64,ESE,113,1.8,2.5,65,0.00,,,0.00,WUHU216HW,2013-06-21 06:41:00,
2013-06-21 01:46:00,74.2,61.7,29.64,SE,135,1.1,2.5,65,0.00,,,0.00,WUHU216HW,2013-06-21 06:46:00,
2013-06-21 01:51:00,74.2,62.1,29.64,SE,135,2.2,2.5,66,0.00,,,0.00,WUHU216HW,2013-06-21 06:51:00,
2013-06-21 01:56:00,74.2,62.1,29.63,SSE,158,2.0,2.2,66,0.00,,,0.00,WUHU216HW,2013-06-21 06:56:00,
2013-06-21 02:01:00,74.0,61.9,29.64,SE,135,1.8,2.0,66,0.00,,,0.00,WUHU216HW,2013-06-21 07:01:00,
2013-06-21 02:06:00,73.8,61.8,29.63,SE,135,1.1,1.8,66,0.00,,,0.00,WUHU216HW,2013-06-21 07:06:00,
2013-06-21 02:11:00,73.8,61.8,29.63,SE,135,1.3,1.8,66,0.00,,,0.00,WUHU216HW,2013-06-21 07:11:00,
2013-06-21 02:16:00,73.6,62.0,29.63,SSE,158,2.5,2.5,67,0.00,,,0.00,WUHU216HW,2013-06-21 07:16:00,
2013-06-21 02:21:00,73.6,62.0,29.63,ESE,113,2.0,2.5,67,0.00,,,0.00,WUHU216HW,2013-06-21 07:21:00,
2013-06-21 02:26:00,73.6,62.0,29.64,SE,135,3.1,3.6,67,0.00,,,0.00,WUHU216HW,2013-06-21 07:26:00,
2013-06-21 02:31:00,73.6,62.5,29.63,ESE,113,1.8,3.6,68,0.00,,,0.00,WUHU216HW,2013-06-21 07:31:00,
2013-06-21 02:36:00,73.6,62.5,29.63,SSE,158,1.3,3.4,68,0.00,,,0.00,WUHU216HW,2013-06-21 07:36:00,
2013-06-21 02:41:00,73.8,62.7,29.63,ESE,113,1.6,2.7,68,0.00,,,0.00,WUHU216HW,2013-06-21 07:41:00,
2013-06-21 02:46:00,73.8,62.7,29.63,SE,135,3.4,3.4,68,0.00,,,0.00,WUHU216HW,2013-06-21 07:46:00,
2013-06-21 02:51:00,73.8,62.7,29.63,ESE,113,2.5,3.4,68,0.00,,,0.00,WUHU216HW,2013-06-21 07:51:00,
2013-06-21 02:56:00,73.8,62.7,29.63,East,90,1.8,2.5,68,0.00,,,0.00,WUHU216HW,2013-06-21 07:56:00,
2013-06-21 03:01:00,73.8,62.7,29.63,SE,135,1.1,2.5,68,0.00,,,0.00,WUHU216HW,2013-06-21 08:01:00,
2013-06-21 03:06:00,73.8,62.7,29.63,SE,135,1.1,2.0,68,0.00,,,0.00,WUHU216HW,2013-06-21 08:06:00,
2013-06-21 03:11:00,73.8,62.7,29.63,SE,135,0.4,2.0,68,0.00,,,0.00,WUHU216HW,2013-06-21 08:11:00,
2013-06-21 03:16:00,73.8,62.7,29.63,SSE,158,1.1,1.8,68,0.00,,,0.00,WUHU216HW,2013-06-21 08:16:00,
2013-06-21 03:21:00,73.6,62.5,29.63,ESE,113,0.7,1.8,68,0.00,,,0.00,WUHU216HW,2013-06-21 08:21:00,
2013-06-21 03:26:00,73.6,62.5,29.64,ESE,113,0.2,1.6,68,0.00,,,0.00,WUHU216HW,2013-06-21 08:26:00,
2013-06-21 03:31:00,73.6,62.5,29.64,ESE,113,0.9,1.1,68,0.00,,,0.00,WUHU216HW,2013-06-21 08:31:00,
2013-06-21 03:36:00,73.6,62.5,29.64,ESE,113,1.1,1.1,68,0.00,,,0.00,WUHU216HW,2013-06-21 08:36:00,
2013-06-21 03:41:00,73.4,62.3,29.64,SE,135,0.7,1.1,68,0.00,,,0.00,WUHU216HW,2013-06-21 08:41:00,
2013-06-21 03:46:00,73.4,62.3,29.64,SE,135,1.1,1.8,68,0.00,,,0.00,WUHU216HW,2013-06-21 08:46:00,
2013-06-21 03:51:00,73.4,62.7,29.64,SSE,158,0.9,1.8,69,0.00,,,0.00,WUHU216HW,2013-06-21 08:51:00,
2013-06-21 03:56:00,73.3,62.6,29.64,SE,135,1.3,1.8,69,0.00,,,0.00,WUHU216HW,2013-06-21 08:56:00,
2013-06-21 04:01:00,73.3,62.6,29.64,SE,135,1.3,1.8,69,0.00,,,0.00,WUHU216HW,2013-06-21 09:01:00,
2013-06-21 04:06:00,73.1,62.8,29.63,SE,135,1.6,1.8,70,0.00,,,0.00,WUHU216HW,2013-06-21 09:06:00,
2013-06-21 04:11:00,73.1,62.8,29.63,SE,135,1.6,1.6,70,0.00,,,0.00,WUHU216HW,2013-06-21 09:11:00,
2013-06-21 04:16:00,72.9,62.6,29.63,SE,135,2.2,2.2,70,0.00,,,0.00,WUHU216HW,2013-06-21 09:16:00,
2013-06-21 04:21:00,72.7,62.8,29.63,SE,135,0.9,2.2,71,0.00,,,0.00,WUHU216HW,2013-06-21 09:21:00,
2013-06-21 04:26:00,72.7,62.8,29.63,East,90,1.1,2.2,71,0.00,,,0.00,WUHU216HW,2013-06-21 09:26:00,
2013-06-21 04:31:00,72.5,62.6,29.63,SE,135,0.9,2.5,71,0.00,,,0.00,WUHU216HW,2013-06-21 09:31:00,
2013-06-21 04:36:00,72.5,62.6,29.63,ESE,113,0.9,2.5,71,0.00,,,0.00,WUHU216HW,2013-06-21 09:36:00,
2013-06-21 04:41:00,72.4,62.8,29.63,East,90,1.1,1.8,72,0.00,,,0.00,WUHU216HW,2013-06-21 09:41:00,
2013-06-21 04:46:00,72.4,62.8,29.63,SE,135,1.8,2.0,72,0.00,,,0.00,WUHU216HW,2013-06-21 09:46:00,
2013-06-21 04:51:00,72.2,62.6,29.63,SE,135,1.3,2.0,72,0.00,,,0.00,WUHU216HW,2013-06-21 09:51:00,
2013-06-21 04:56:00,72.2,62.6,29.63,SE,135,0.9,2.0,72,0.00,,,0.00,WUHU216HW,2013-06-21 09:56:00,
2013-06-21 05:01:00,72.0,62.5,29.63,SE,135,1.1,2.0,72,0.00,,,0.00,WUHU216HW,2013-06-21 10:01:00,
2013-06-21 05:06:00,72.0,62.5,29.63,SE,135,1.1,1.6,72,0.00,,,0.00,WUHU216HW,2013-06-21 10:06:00,
2013-06-21 05:11:00,72.0,62.1,29.63,SE,135,1.1,1.3,71,0.00,,,0.00,WUHU216HW,2013-06-21 10:11:00,
2013-06-21 05:16:00,71.8,62.3,29.63,ESE,113,1.6,2.0,72,0.00,,,0.00,WUHU216HW,2013-06-21 10:16:00,
2013-06-21 05:21:00,71.6,62.1,29.63,ESE,113,0.9,2.0,72,0.00,,,0.00,WUHU216HW,2013-06-21 10:21:00,
2013-06-21 05:26:00,71.6,62.1,29.63,SE,135,1.1,1.6,72,0.00,,,0.00,WUHU216HW,2013-06-21 10:26:00,
2013-06-21 05:27:00,71.6,62.1,29.63,SE,135,1.1,1.1,72,0.00,,,0.00,WUHU216HW,2013-06-21 10:27:00,
2013-06-21 05:31:00,71.6,62.1,29.63,SE,135,1.1,1.6,72,0.00,,,0.00,WUHU216HW,2013-06-21 10:31:00,
2013-06-21 05:36:00,71.6,62.1,29.63,SE,135,1.1,1.1,72,0.00,,,0.00,WUHU216HW,2013-06-21 10:36:00,
2013-06-21 05:57:00,73.1,64.0,29.64,SE,135,0.9,0.9,73,0.00,,,0.00,WUHU216HW,2013-06-21 10:57:00,
2013-06-21 06:02:00,72.5,63.5,29.64,SE,135,0.7,1.8,73,0.00,,,0.00,WUHU216HW,2013-06-21 11:02:00,
2013-06-21 06:07:00,72.4,63.6,29.64,SE,135,1.1,1.8,74,0.00,,,0.00,WUHU216HW,2013-06-21 11:07:00,
2013-06-21 06:12:00,72.0,62.9,29.64,ESE,113,0.0,1.8,73,0.00,,,0.00,WUHU216HW,2013-06-21 11:12:00,
2013-06-21 06:17:00,72.0,63.3,29.64,SSE,158,0.7,1.3,74,0.00,,,0.00,WUHU216HW,2013-06-21 11:17:00,
2013-06-21 06:22:00,72.0,63.3,29.64,SE,135,1.1,1.6,74,0.00,,,0.00,WUHU216HW,2013-06-21 11:22:00,
2013-06-21 06:27:00,72.0,63.3,29.64,SE,135,1.3,1.6,74,0.00,,,0.00,WUHU216HW,2013-06-21 11:27:00,
2013-06-21 06:32:00,72.0,63.3,29.64,SE,135,1.8,2.5,74,0.00,,,0.00,WUHU216HW,2013-06-21 11:32:00,
2013-06-21 06:37:00,72.2,63.8,29.64,SE,135,1.8,2.9,75,0.00,,,0.00,WUHU216HW,2013-06-21 11:37:00,
2013-06-21 06:42:00,72.4,64.4,29.63,SE,135,2.0,2.9,76,0.00,,,0.00,WUHU216HW,2013-06-21 11:42:00,
2013-06-21 06:47:00,72.7,64.7,29.63,SE,135,1.8,3.1,76,0.00,,,0.00,WUHU216HW,2013-06-21 11:47:00,
2013-06-21 06:52:00,73.1,65.1,29.63,SE,135,2.5,3.1,76,0.00,,,0.00,WUHU216HW,2013-06-21 11:52:00,
2013-06-21 06:57:00,73.4,65.4,29.64,SE,135,1.1,2.5,76,0.00,,,0.00,WUHU216HW,2013-06-21 11:57:00,
2013-06-21 07:02:00,73.8,65.4,29.64,SSE,158,1.1,1.6,75,0.00,,,0.00,WUHU216HW,2013-06-21 12:02:00,
2013-06-21 07:07:00,74.2,65.8,29.63,SSE,158,1.8,2.5,75,0.00,,,0.00,WUHU216HW,2013-06-21 12:07:00,
2013-06-21 07:12:00,74.7,66.2,29.64,SE,135,0.7,2.5,75,0.00,,,0.00,WUHU216HW,2013-06-21 12:12:00,
2013-06-21 07:17:00,75.1,66.6,29.64,East,90,0.7,3.4,75,0.00,,,0.00,WUHU216HW,2013-06-21 12:17:00,
2013-06-21 07:22:00,75.6,66.7,29.64,East,90,1.8,3.4,74,0.00,,,0.00,WUHU216HW,2013-06-21 12:22:00,
2013-06-21 07:27:00,76.0,67.1,29.64,South,180,2.7,2.7,74,0.00,,,0.00,WUHU216HW,2013-06-21 12:27:00,
2013-06-21 07:32:00,76.7,67.4,29.64,SE,135,3.8,4.0,73,0.00,,,0.00,WUHU216HW,2013-06-21 12:32:00,
2013-06-21 07:37:00,77.0,67.3,29.64,SSE,158,1.8,4.0,72,0.00,,,0.00,WUHU216HW,2013-06-21 12:37:00,
2013-06-21 07:42:00,77.4,67.7,29.63,SSE,158,3.4,3.8,72,0.00,,,0.00,WUHU216HW,2013-06-21 12:42:00,
2013-06-21 07:47:00,77.8,67.6,29.64,SSW,203,5.4,5.4,71,0.00,,,0.00,WUHU216HW,2013-06-21 12:47:00,
2013-06-21 07:52:00,78.3,68.1,29.64,SSW,203,2.7,5.4,71,0.00,,,0.00,WUHU216HW,2013-06-21 12:52:00,
2013-06-21 07:57:00,78.8,68.6,29.63,SSE,158,3.1,5.4,71,0.00,,,0.00,WUHU216HW,2013-06-21 12:57:00,
2013-06-21 08:02:00,82.6,69.1,29.63,SW,225,3.4,6.3,64,0.00,,,0.00,WUHU216HW,2013-06-21 13:02:00,
2013-06-21 08:07:00,84.1,70.1,29.63,SSW,203,4.0,6.3,63,0.00,,,0.00,WUHU216HW,2013-06-21 13:07:00,
2013-06-21 08:12:00,83.2,69.2,29.63,South,180,2.7,4.7,63,0.00,,,0.00,WUHU216HW,2013-06-21 13:12:00,
2013-06-21 08:17:00,82.4,68.5,29.63,SSE,158,3.8,4.9,63,0.00,,,0.00,WUHU216HW,2013-06-21 13:17:00,
2013-06-21 08:22:00,84.2,69.8,29.63,SW,225,3.6,4.9,62,0.00,,,0.00,WUHU216HW,2013-06-21 13:22:00,
2013-06-21 08:27:00,85.5,70.1,29.63,SE,135,6.0,6.0,60,0.00,,,0.00,WUHU216HW,2013-06-21 13:27:00,
2013-06-21 08:32:00,84.8,69.4,29.63,SE,135,4.0,6.0,60,0.00,,,0.00,WUHU216HW,2013-06-21 13:32:00,
2013-06-21 08:38:00,84.1,69.7,29.62,South,180,1.6,4.7,62,0.00,,,0.00,WUHU216HW,2013-06-21 13:38:00,
2013-06-21 08:43:00,86.0,70.6,29.62,SE,135,2.2,4.0,60,0.00,,,0.00,WUHU216HW,2013-06-21 13:43:00,
2013-06-21 08:48:00,87.1,70.6,29.62,South,180,3.4,4.0,58,0.00,,,0.00,WUHU216HW,2013-06-21 13:48:00,
2013-06-21 08:53:00,86.8,69.7,29.61,South,180,4.3,4.3,57,0.00,,,0.00,WUHU216HW,2013-06-21 13:53:00,
2013-06-21 08:58:00,85.7,69.8,29.62,SSE,158,5.4,5.4,59,0.00,,,0.00,WUHU216HW,2013-06-21 13:58:00,
2013-06-21 09:03:00,86.0,70.0,29.62,SE,135,3.4,6.3,59,0.00,,,0.00,WUHU216HW,2013-06-21 14:03:00,
2013-06-21 09:08:00,87.1,69.5,29.62,SSW,203,3.4,6.3,56,0.00,,,0.00,WUHU216HW,2013-06-21 14:08:00,
2013-06-21 09:13:00,87.7,69.5,29.62,South,180,2.7,6.5,55,0.00,,,0.00,WUHU216HW,2013-06-21 14:13:00,
2013-06-21 09:18:00,86.9,69.8,29.62,West,270,1.3,6.5,57,0.00,,,0.00,WUHU216HW,2013-06-21 14:18:00,
2013-06-21 09:23:00,87.8,70.2,29.62,SE,135,6.5,6.5,56,0.00,,,0.00,WUHU216HW,2013-06-21 14:23:00,
2013-06-21 09:28:00,88.7,68.9,29.62,SSW,203,2.5,6.5,52,0.00,,,0.00,WUHU216HW,2013-06-21 14:28:00,
2013-06-21 09:33:00,88.9,69.6,29.63,South,180,6.3,6.3,53,0.00,,,0.00,WUHU216HW,2013-06-21 14:33:00,
2013-06-21 09:38:00,88.4,69.0,29.63,South,180,2.9,7.6,53,0.00,,,0.00,WUHU216HW,2013-06-21 14:38:00,
2013-06-21 09:43:00,87.5,68.8,29.63,SSE,158,4.9,7.6,54,0.00,,,0.00,WUHU216HW,2013-06-21 14:43:00,
2013-06-21 09:48:00,88.6,68.7,29.63,SSW,203,6.9,6.9,52,0.00,,,0.00,WUHU216HW,2013-06-21 14:48:00,
2013-06-21 09:53:00,89.6,69.7,29.63,SW,225,2.5,6.9,52,0.00,,,0.00,WUHU216HW,2013-06-21 14:53:00,
2013-06-21 09:58:00,89.1,69.2,29.63,ESE,113,2.7,5.6,52,0.00,,,0.00,WUHU216HW,2013-06-21 14:58:00,
2013-06-21 10:03:00,88.4,69.0,29.63,SW,225,4.7,5.6,53,0.00,,,0.00,WUHU216HW,2013-06-21 15:03:00,
2013-06-21 10:08:00,88.7,68.9,29.63,SSW,203,5.4,5.4,52,0.00,,,0.00,WUHU216HW,2013-06-21 15:08:00,
2013-06-21 10:13:00,90.0,69.0,29.63,WSW,248,3.8,6.0,50,0.00,,,0.00,WUHU216HW,2013-06-21 15:13:00,
2013-06-21 10:18:00,90.0,69.5,29.63,South,180,3.8,7.4,51,0.00,,,0.00,WUHU216HW,2013-06-21 15:18:00,
2013-06-21 10:23:00,89.1,68.7,29.63,SSW,203,5.4,7.4,51,0.00,,,0.00,WUHU216HW,2013-06-21 15:23:00,
2013-06-21 10:28:00,87.8,68.0,29.63,WSW,248,3.4,5.6,52,0.00,,,0.00,WUHU216HW,2013-06-21 15:28:00,
2013-06-21 10:33:00,88.6,69.8,29.63,South,180,4.0,6.3,54,0.00,,,0.00,WUHU216HW,2013-06-21 15:33:00,
2013-06-21 10:38:00,90.4,69.2,29.63,SSE,158,1.8,6.3,50,0.00,,,0.00,WUHU216HW,2013-06-21 15:38:00,
2013-06-21 10:43:00,90.4,69.8,29.63,SSE,158,3.4,7.2,51,0.00,,,0.00,WUHU216HW,2013-06-21 15:43:00,
2013-06-21 10:48:00,89.5,69.5,29.62,West,270,1.8,8.5,52,0.00,,,0.00,WUHU216HW,2013-06-21 15:48:00,
2013-06-21 10:53:00,90.0,70.0,29.62,South,180,4.0,8.5,52,0.00,,,0.00,WUHU216HW,2013-06-21 15:53:00,
2013-06-21 10:58:00,91.8,70.6,29.62,SW,225,8.1,8.5,50,0.00,,,0.00,WUHU216HW,2013-06-21 15:58:00,
2013-06-21 11:03:00,91.4,69.6,29.62,SW,225,4.0,9.2,49,0.00,,,0.00,WUHU216HW,2013-06-21 16:03:00,
2013-06-21 11:08:00,90.2,69.0,29.62,SSW,203,4.7,9.2,50,0.00,,,0.00,WUHU216HW,2013-06-21 16:08:00,
2013-06-21 11:14:00,91.3,70.0,29.62,South,180,4.0,8.5,50,0.00,,,0.00,WUHU216HW,2013-06-21 16:14:00,
2013-06-21 11:19:00,92.5,70.6,29.62,South,180,3.4,4.0,49,0.00,,,0.00,WUHU216HW,2013-06-21 16:19:00,
2013-06-21 11:24:00,92.9,70.8,29.63,West,270,2.5,5.4,49,0.00,,,0.00,WUHU216HW,2013-06-21 16:24:00,
2013-06-21 11:29:00,92.0,70.0,29.62,SSE,158,2.7,5.4,49,0.00,,,0.00,WUHU216HW,2013-06-21 16:29:00,
2013-06-21 11:34:00,92.0,70.0,29.62,SSE,158,6.7,6.7,49,0.00,,,0.00,WUHU216HW,2013-06-21 16:34:00,
2013-06-21 11:39:00,92.9,70.2,29.62,SSW,203,4.7,8.5,48,0.00,,,0.00,WUHU216HW,2013-06-21 16:39:00,
2013-06-21 11:44:00,93.2,70.6,29.62,West,270,3.4,8.5,48,0.00,,,0.00,WUHU216HW,2013-06-21 16:44:00,
2013-06-21 11:49:00,92.2,70.2,29.62,East,90,4.9,4.9,49,0.00,,,0.00,WUHU216HW,2013-06-21 16:49:00,
2013-06-21 11:54:00,92.2,70.8,29.62,SW,225,2.9,5.4,50,0.00,,,0.00,WUHU216HW,2013-06-21 16:54:00,
2013-06-21 11:59:00,92.2,70.8,29.62,SW,225,2.9,5.4,50,0.00,,,0.00,WUHU216HW,2013-06-21 16:59:00,
2013-06-21 12:04:00,93.4,70.0,29.62,SSW,203,4.0,4.7,47,0.00,,,0.00,WUHU216HW,2013-06-21 17:04:00,
2013-06-21 12:09:00,92.3,69.8,29.62,NW,315,6.3,6.3,48,0.00,,,0.00,WUHU216HW,2013-06-21 17:09:00,
2013-06-21 12:14:00,93.4,70.8,29.63,SW,225,4.0,6.3,48,0.00,,,0.00,WUHU216HW,2013-06-21 17:14:00,
2013-06-21 12:19:00,94.0,71.2,29.62,WSW,248,3.4,6.7,48,0.00,,,0.00,WUHU216HW,2013-06-21 17:19:00,
2013-06-21 12:24:00,94.0,70.6,29.62,SE,135,4.9,6.7,47,0.00,,,0.00,WUHU216HW,2013-06-21 17:24:00,
2013-06-21 12:30:00,93.1,70.4,29.63,SW,225,4.3,5.6,48,0.00,,,0.00,WUHU216HW,2013-06-21 17:30:00,
2013-06-21 12:35:00,94.0,71.2,29.63,SE,135,3.4,5.8,48,0.00,,,0.00,WUHU216HW,2013-06-21 17:35:00,
2013-06-21 12:40:00,94.5,71.1,29.63,WSW,248,1.3,5.8,47,0.00,,,0.00,WUHU216HW,2013-06-21 17:40:00,
2013-06-21 12:46:00,95.0,70.3,29.62,South,180,2.9,5.6,45,0.00,,,0.00,WUHU216HW,2013-06-21 17:46:00,
2013-06-21 12:51:00,93.8,70.4,29.62,WSW,248,1.8,5.6,47,0.00,,,0.00,WUHU216HW,2013-06-21 17:51:00,
2013-06-21 12:56:00,94.0,70.6,29.63,SW,225,2.5,4.7,47,0.00,,,0.00,WUHU216HW,2013-06-21 17:56:00,
2013-06-21 13:02:00,94.0,70.6,29.63,SW,225,1.1,4.7,47,0.00,,,0.00,WUHU216HW,2013-06-21 18:02:00,
2013-06-21 13:07:00,94.5,71.1,29.62,WNW,293,4.9,4.9,47,0.00,,,0.00,WUHU216HW,2013-06-21 18:07:00,
2013-06-21 13:12:00,93.6,70.2,29.62,WSW,248,4.0,4.9,47,0.00,,,0.00,WUHU216HW,2013-06-21 18:12:00,
2013-06-21 13:17:00,93.4,69.4,29.62,SSW,203,4.0,4.7,46,0.00,,,0.00,WUHU216HW,2013-06-21 18:17:00,
2013-06-21 13:22:00,95.2,70.5,29.61,WSW,248,2.5,4.3,45,0.00,,,0.00,WUHU216HW,2013-06-21 18:22:00,
2013-06-21 13:23:00,95.4,71.3,29.61,SE,135,2.5,4.3,46,0.00,,,0.00,WUHU216HW,2013-06-21 18:23:00,
2013-06-21 13:24:00,95.4,71.3,29.61,SE,135,2.5,4.3,46,0.00,,,0.00,WUHU216HW,2013-06-21 18:24:00,
2013-06-21 13:29:00,94.7,69.9,29.61,West,270,3.4,3.4,45,0.00,,,0.00,WUHU216HW,2013-06-21 18:29:00,
2013-06-21 13:34:00,95.0,70.9,29.61,SE,135,1.8,3.4,46,0.00,,,0.00,WUHU216HW,2013-06-21 18:34:00,
2013-06-21 13:39:00,94.0,69.3,29.61,SSW,203,5.4,5.4,45,0.00,,,0.00,WUHU216HW,2013-06-21 18:39:00,
2013-06-21 13:44:00,92.9,70.2,29.61,South,180,4.5,5.4,48,0.00,,,0.00,WUHU216HW,2013-06-21 18:44:00,
2013-06-21 13:45:00,92.9,69.6,29.61,South,180,2.0,5.4,47,0.00,,,0.00,WUHU216HW,2013-06-21 18:45:00,
2013-06-21 13:47:00,93.2,69.8,29.61,South,180,2.0,5.4,47,0.00,,,0.00,WUHU216HW,2013-06-21 18:47:00,
2013-06-21 13:52:00,93.6,69.6,29.60,WSW,248,2.2,4.5,46,0.00,,,0.00,WUHU216HW,2013-06-21 18:52:00,
2013-06-21 13:57:00,93.8,69.8,29.60,North,0,1.6,3.4,46,0.00,,,0.00,WUHU216HW,2013-06-21 18:57:00,
2013-06-21 14:02:00,92.9,69.6,29.61,West,270,7.6,7.6,47,0.00,,,0.00,WUHU216HW,2013-06-21 19:02:00,
2013-06-21 14:07:00,86.4,68.3,29.64,NNE,23,1.3,15.9,55,0.00,,,0.00,WUHU216HW,2013-06-21 19:07:00,
2013-06-21 14:12:00,82.4,68.9,29.64,ENE,68,1.6,4.7,64,0.04,,,0.03,WUHU216HW,2013-06-21 19:12:00,
2013-06-21 14:17:00,81.0,69.5,29.65,NNE,23,1.8,4.7,68,0.07,,,0.07,WUHU216HW,2013-06-21 19:17:00,
2013-06-21 14:20:00,79.9,68.0,29.67,NNE,23,2.7,3.1,67,0.15,,,0.13,WUHU216HW,2013-06-21 19:20:00,
2013-06-21 14:25:00,76.5,68.0,29.66,NNE,23,6.3,8.1,75,0.55,,,0.43,WUHU216HW,2013-06-21 19:25:00,
2013-06-21 14:30:00,73.8,68.1,29.67,ENE,68,1.8,8.1,82,0.79,,,0.76,WUHU216HW,2013-06-21 19:30:00,
2013-06-21 14:35:00,73.6,66.8,29.66,ENE,68,3.8,7.4,79,0.91,,,0.89,WUHU216HW,2013-06-21 19:35:00,
2013-06-21 14:40:00,73.3,66.4,29.67,SE,135,2.9,7.4,79,0.98,,,0.97,WUHU216HW,2013-06-21 19:40:00,
2013-06-21 14:43:00,72.7,66.6,29.66,NNE,23,3.4,7.4,81,1.00,,,0.97,WUHU216HW,2013-06-21 19:43:00,
2013-06-21 14:48:00,71.6,65.5,29.63,SE,135,2.7,5.4,81,1.04,,,1.04,WUHU216HW,2013-06-21 19:48:00,
2013-06-21 14:53:00,71.1,65.4,29.62,ESE,113,2.7,5.4,82,1.06,,,1.04,WUHU216HW,2013-06-21 19:53:00,
2013-06-21 14:58:00,70.4,64.9,29.62,ESE,113,7.6,7.6,83,1.06,,,1.06,WUHU216HW,2013-06-21 19:58:00,
2013-06-21 15:03:00,70.2,65.1,29.64,SSE,158,4.9,7.6,84,1.06,,,1.06,WUHU216HW,2013-06-21 20:03:00,
2013-06-21 15:04:00,70.0,64.9,29.63,ESE,113,4.0,7.6,84,1.05,,,1.06,WUHU216HW,2013-06-21 20:04:00,
2013-06-21 15:08:00,69.8,64.7,29.63,ENE,68,1.6,7.2,84,1.02,,,1.06,WUHU216HW,2013-06-21 20:08:00,
2013-06-21 15:11:00,69.8,65.1,29.62,NNE,23,2.5,7.2,85,1.02,,,1.06,WUHU216HW,2013-06-21 20:11:00,
2013-06-21 15:15:00,69.8,65.8,29.62,East,90,2.2,4.0,87,1.00,,,1.07,WUHU216HW,2013-06-21 20:15:00,
2013-06-21 15:19:00,70.4,65.3,29.65,SE,135,2.9,2.9,84,0.91,,,1.07,WUHU216HW,2013-06-21 20:19:00,
2013-06-21 15:20:00,70.4,65.3,29.65,SE,135,2.9,4.0,84,0.91,,,1.07,WUHU216HW,2013-06-21 20:20:00,
2013-06-21 15:25:00,70.4,65.3,29.65,SE,135,2.9,3.6,84,0.91,,,1.07,WUHU216HW,2013-06-21 20:25:00,
2013-06-21 15:49:00,69.1,64.7,29.64,NW,315,4.7,4.7,86,0.02,,,1.07,WUHU216HW,2013-06-21 20:49:00,
2013-06-21 15:54:00,69.3,65.6,29.63,SE,135,2.9,4.7,88,0.01,,,1.07,WUHU216HW,2013-06-21 20:54:00,
2013-06-21 15:59:00,70.0,64.9,29.63,NE,45,2.5,4.7,84,0.01,,,1.07,WUHU216HW,2013-06-21 20:59:00,
2013-06-21 16:03:00,69.8,65.1,29.61,SSE,158,5.1,5.1,85,0.01,,,1.07,WUHU216HW,2013-06-21 21:03:00,
2013-06-21 16:04:00,69.8,65.1,29.61,SSE,158,5.1,5.1,85,0.01,,,1.07,WUHU216HW,2013-06-21 21:04:00,
2013-06-21 16:09:00,69.5,64.7,29.62,NE,45,1.8,5.1,85,0.00,,,1.07,WUHU216HW,2013-06-21 21:09:00,
2013-06-21 16:14:00,69.5,65.1,29.62,SE,135,2.9,4.0,86,0.00,,,1.07,WUHU216HW,2013-06-21 21:14:00,
2013-06-21 16:19:00,69.5,65.1,29.61,ENE,68,3.4,3.6,86,0.00,,,1.07,WUHU216HW,2013-06-21 21:19:00,
2013-06-21 16:24:00,69.3,65.3,29.62,East,90,4.3,5.4,87,0.00,,,1.07,WUHU216HW,2013-06-21 21:24:00,
2013-06-21 16:29:00,69.3,65.3,29.61,NE,45,3.4,5.4,87,0.00,,,1.07,WUHU216HW,2013-06-21 21:29:00,
2013-06-21 16:34:00,69.3,65.6,29.61,SE,135,3.6,6.9,88,0.00,,,1.07,WUHU216HW,2013-06-21 21:34:00,
2013-06-21 16:39:00,69.3,65.6,29.60,SE,135,5.4,6.9,88,0.00,,,1.07,WUHU216HW,2013-06-21 21:39:00,
2013-06-21 16:44:00,69.5,65.7,29.60,East,90,3.1,6.0,88,0.00,,,1.07,WUHU216HW,2013-06-21 21:44:00,
2013-06-21 16:49:00,69.5,65.7,29.60,East,90,2.9,6.0,88,0.00,,,1.07,WUHU216HW,2013-06-21 21:49:00,
2013-06-21 17:00:00,70.7,66.3,29.58,SSE,158,4.0,4.0,86,0.00,,,1.07,WUHU216HW,2013-06-21 22:00:00,
2013-06-21 17:05:00,70.4,66.0,29.58,ESE,113,3.1,4.0,86,0.00,,,1.07,WUHU216HW,2013-06-21 22:05:00,
2013-06-21 17:10:00,70.4,66.3,29.58,SSE,158,2.5,4.7,87,0.00,,,1.07,WUHU216HW,2013-06-21 22:10:00,
2013-06-21 17:15:00,70.4,66.6,29.57,SE,135,3.8,4.7,88,0.00,,,1.07,WUHU216HW,2013-06-21 22:15:00,
2013-06-21 17:20:00,70.4,66.6,29.57,SE,135,3.4,4.7,88,0.00,,,1.07,WUHU216HW,2013-06-21 22:20:00,
2013-06-21 17:25:00,70.2,66.4,29.57,SE,135,1.8,5.6,88,0.00,,,1.07,WUHU216HW,2013-06-21 22:25:00,
2013-06-21 17:30:00,70.4,66.6,29.57,South,180,6.0,6.0,88,0.00,,,1.07,WUHU216HW,2013-06-21 22:30:00,
2013-06-21 17:35:00,70.4,66.6,29.57,ESE,113,4.5,6.0,88,0.00,,,1.07,WUHU216HW,2013-06-21 22:35:00,
2013-06-21 17:40:00,70.6,66.8,29.57,SSE,158,2.5,4.5,88,0.00,,,1.07,WUHU216HW,2013-06-21 22:40:00,
2013-06-21 17:45:00,70.6,66.8,29.57,ESE,113,1.8,4.0,88,0.00,,,1.07,WUHU216HW,2013-06-21 22:45:00,
2013-06-21 17:50:00,70.7,67.0,29.56,SE,135,3.8,4.0,88,0.00,,,1.07,WUHU216HW,2013-06-21 22:50:00,
2013-06-21 17:55:00,70.7,67.0,29.56,SE,135,2.5,4.0,88,0.00,,,1.07,WUHU216HW,2013-06-21 22:55:00,
2013-06-21 18:00:00,70.7,67.0,29.56,WSW,248,2.9,4.0,88,0.00,,,1.07,WUHU216HW,2013-06-21 23:00:00,
2013-06-21 18:05:00,71.1,67.3,29.55,South,180,2.9,4.0,88,0.00,,,1.07,WUHU216HW,2013-06-21 23:05:00,
2013-06-21 18:10:00,71.3,67.2,29.55,SSE,158,2.0,3.1,87,0.00,,,1.07,WUHU216HW,2013-06-21 23:10:00,
2013-06-21 18:15:00,71.5,67.4,29.55,SE,135,3.8,3.8,87,0.00,,,1.07,WUHU216HW,2013-06-21 23:15:00,
2013-06-21 18:20:00,71.6,67.2,29.55,ESE,113,1.3,3.8,86,0.00,,,1.07,WUHU216HW,2013-06-21 23:20:00,
2013-06-21 18:25:00,72.0,67.6,29.54,ESE,113,1.8,2.9,86,0.00,,,1.07,WUHU216HW,2013-06-21 23:25:00,
2013-06-21 18:30:00,72.2,67.8,29.55,SE,135,1.6,2.5,86,0.00,,,1.07,WUHU216HW,2013-06-21 23:30:00,
2013-06-21 18:35:00,72.4,67.6,29.54,SE,135,2.0,2.9,85,0.00,,,1.07,WUHU216HW,2013-06-21 23:35:00,
2013-06-21 18:40:00,72.7,68.0,29.55,ESE,113,3.8,4.0,85,0.00,,,1.07,WUHU216HW,2013-06-21 23:40:00,
2013-06-21 18:45:00,73.1,68.3,29.54,SE,135,1.6,4.0,85,0.00,,,1.07,WUHU216HW,2013-06-21 23:45:00,
2013-06-21 18:50:00,73.1,68.3,29.55,SSE,158,2.0,2.7,85,0.00,,,1.07,WUHU216HW,2013-06-21 23:50:00,
2013-06-21 18:55:00,73.6,68.9,29.55,SW,225,3.6,3.6,85,0.00,,,1.07,WUHU216HW,2013-06-21 23:55:00,
2013-06-21 19:00:00,76.3,70.1,29.55,West,270,2.5,3.6,81,0.00,,,1.07,WUHU216HW,2013-06-22 00:00:00,
2013-06-21 19:05:00,77.2,69.9,29.55,South,180,5.1,5.1,78,0.00,,,1.07,WUHU216HW,2013-06-22 00:05:00,
2013-06-21 19:10:00,76.7,69.7,29.54,SE,135,1.1,5.1,79,0.00,,,1.07,WUHU216HW,2013-06-22 00:10:00,
2013-06-21 19:15:00,76.5,69.5,29.54,ESE,113,4.7,4.7,79,0.00,,,1.07,WUHU216HW,2013-06-22 00:15:00,
2013-06-21 19:20:00,76.3,69.4,29.54,South,180,5.4,5.4,79,0.00,,,1.07,WUHU216HW,2013-06-22 00:20:00,
2013-06-21 19:25:00,76.5,69.1,29.53,SE,135,2.5,5.4,78,0.00,,,1.07,WUHU216HW,2013-06-22 00:25:00,
2013-06-21 19:30:00,76.7,69.3,29.53,ESE,113,2.0,5.4,78,0.00,,,1.07,WUHU216HW,2013-06-22 00:30:00,
2013-06-21 19:35:00,76.7,69.3,29.53,SSE,158,1.8,3.4,78,0.00,,,1.07,WUHU216HW,2013-06-22 00:35:00,
2013-06-21 19:40:00,76.5,69.1,29.53,SE,135,1.3,3.4,78,0.00,,,1.07,WUHU216HW,2013-06-22 00:40:00,
2013-06-21 19:45:00,76.1,68.8,29.53,SE,135,1.6,2.7,78,0.00,,,1.07,WUHU216HW,2013-06-22 00:45:00,
2013-06-21 19:50:00,76.0,69.0,29.53,SSE,158,1.8,2.5,79,0.00,,,1.07,WUHU216HW,2013-06-22 00:50:00,
2013-06-21 19:55:00,75.6,69.1,29.53,SE,135,2.9,2.9,80,0.00,,,1.07,WUHU216HW,2013-06-22 00:55:00,
2013-06-21 20:00:00,75.6,69.1,29.53,SSE,158,2.9,2.9,80,0.00,,,1.07,WUHU216HW,2013-06-22 01:00:00,
2013-06-21 20:05:00,75.4,69.0,29.53,ESE,113,1.6,2.9,80,0.00,,,1.07,WUHU216HW,2013-06-22 01:05:00,
2013-06-21 20:10:00,75.2,68.8,29.53,ESE,113,1.1,2.5,80,0.00,,,1.07,WUHU216HW,2013-06-22 01:10:00,
2013-06-21 20:15:00,75.2,68.8,29.53,ESE,113,1.1,2.5,80,0.00,,,1.07,WUHU216HW,2013-06-22 01:15:00,
2013-06-21 20:40:00,75.2,69.1,29.55,SE,135,1.1,1.1,81,0.00,,,1.07,WUHU216HW,2013-06-22 01:40:00,
2013-06-21 20:45:00,76.1,69.6,29.55,SE,135,1.6,1.8,80,0.00,,,1.07,WUHU216HW,2013-06-22 01:45:00,
2013-06-21 20:50:00,76.1,69.2,29.56,SSE,158,1.1,1.8,79,0.00,,,1.07,WUHU216HW,2013-06-22 01:50:00,
2013-06-21 20:55:00,75.4,68.5,29.56,SE,135,1.1,1.8,79,0.00,,,1.07,WUHU216HW,2013-06-22 01:55:00,
2013-06-21 21:00:00,75.1,68.6,29.56,East,90,0.9,1.8,80,0.00,,,1.07,WUHU216HW,2013-06-22 02:00:00,
2013-06-21 21:05:00,74.9,68.8,29.56,SE,135,1.1,1.8,81,0.00,,,1.07,WUHU216HW,2013-06-22 02:05:00,
2013-06-21 21:10:00,74.5,68.4,29.57,SE,135,1.6,1.8,81,0.00,,,1.07,WUHU216HW,2013-06-22 02:10:00,
2013-06-21 21:15:00,74.3,68.2,29.57,ESE,113,1.3,1.8,81,0.00,,,1.07,WUHU216HW,2013-06-22 02:15:00,
2013-06-21 21:20:00,74.2,68.1,29.57,ESE,113,0.0,1.3,81,0.00,,,1.07,WUHU216HW,2013-06-22 02:20:00,
2013-06-21 21:25:00,74.2,68.4,29.58,ESE,113,0.0,0.7,82,0.00,,,1.07,WUHU216HW,2013-06-22 02:25:00,
2013-06-21 21:30:00,74.0,68.2,29.58,ESE,113,0.9,1.1,82,0.00,,,1.07,WUHU216HW,2013-06-22 02:30:00,
2013-06-21 21:35:00,73.8,68.1,29.59,ESE,113,0.4,1.1,82,0.00,,,1.07,WUHU216HW,2013-06-22 02:35:00,
2013-06-21 21:40:00,73.8,68.3,29.59,ESE,113,1.1,1.1,83,0.00,,,1.07,WUHU216HW,2013-06-22 02:40:00,
2013-06-21 21:45:00,73.8,68.3,29.59,ESE,113,0.0,1.1,83,0.00,,,1.07,WUHU216HW,2013-06-22 02:45:00,
2013-06-21 21:50:00,73.6,68.1,29.59,SE,135,0.7,1.1,83,0.00,,,1.07,WUHU216HW,2013-06-22 02:50:00,
2013-06-21 21:55:00,73.6,68.1,29.59,SE,135,1.1,1.1,83,0.00,,,1.07,WUHU216HW,2013-06-22 02:55:00,
2013-06-21 22:00:00,73.4,68.0,29.59,ESE,113,2.0,2.0,83,0.00,,,1.07,WUHU216HW,2013-06-22 03:00:00,
2013-06-21 22:05:00,73.4,68.3,29.60,SE,135,1.3,2.0,84,0.00,,,1.07,WUHU216HW,2013-06-22 03:05:00,
2013-06-21 22:10:00,73.4,68.3,29.60,ESE,113,1.1,2.0,84,0.00,,,1.07,WUHU216HW,2013-06-22 03:10:00,
2013-06-21 22:15:00,73.4,68.3,29.60,ESE,113,1.6,2.2,84,0.00,,,1.07,WUHU216HW,2013-06-22 03:15:00,
2013-06-21 22:20:00,73.4,68.7,29.61,ESE,113,1.6,2.2,85,0.00,,,1.07,WUHU216HW,2013-06-22 03:20:00,
2013-06-21 22:25:00,73.4,68.7,29.61,SE,135,1.8,2.5,85,0.00,,,1.07,WUHU216HW,2013-06-22 03:25:00,
2013-06-21 22:30:00,73.4,68.7,29.61,SE,135,1.1,2.5,85,0.00,,,1.07,WUHU216HW,2013-06-22 03:30:00,
2013-06-21 22:35:00,73.4,68.7,29.61,East,90,1.3,2.5,85,0.00,,,1.07,WUHU216HW,2013-06-22 03:35:00,
2013-06-21 22:40:00,73.4,68.7,29.61,SSE,158,1.1,2.5,85,0.00,,,1.07,WUHU216HW,2013-06-22 03:40:00,
2013-06-21 22:45:00,73.4,68.7,29.61,SE,135,0.4,2.2,85,0.00,,,1.07,WUHU216HW,2013-06-22 03:45:00,
2013-06-21 22:50:00,73.4,68.7,29.61,ESE,113,0.4,1.6,85,0.00,,,1.07,WUHU216HW,2013-06-22 03:50:00,
2013-06-21 22:55:00,73.4,68.7,29.61,SE,135,0.9,1.6,85,0.00,,,1.07,WUHU216HW,2013-06-22 03:55:00,
2013-06-21 23:00:00,73.6,68.9,29.61,SE,135,0.9,1.6,85,0.00,,,1.07,WUHU216HW,2013-06-22 04:00:00,
2013-06-21 23:01:00,73.6,68.9,29.61,SE,135,0.9,1.6,85,0.00,,,1.07,WUHU216HW,2013-06-22 04:01:00,
2013-06-21 23:06:00,73.6,69.2,29.61,SE,135,0.4,0.9,86,0.00,,,1.07,WUHU216HW,2013-06-22 04:06:00,
2013-06-21 23:11:00,75.6,70.1,29.61,ESE,113,0.4,1.1,83,0.00,,,1.07,WUHU216HW,2013-06-22 04:11:00,
2013-06-21 23:16:00,75.6,69.4,29.61,ESE,113,1.1,1.1,81,0.00,,,1.07,WUHU216HW,2013-06-22 04:16:00,
2013-06-21 23:21:00,74.9,69.1,29.61,ESE,113,0.9,1.6,82,0.00,,,1.07,WUHU216HW,2013-06-22 04:21:00,
2013-06-21 23:26:00,74.2,68.7,29.60,ESE,113,0.4,1.6,83,0.00,,,1.07,WUHU216HW,2013-06-22 04:26:00,
2013-06-21 23:31:00,74.0,68.5,29.60,SE,135,0.2,1.3,83,0.00,,,1.07,WUHU216HW,2013-06-22 04:31:00,
2013-06-21 23:36:00,73.6,68.1,29.59,SE,135,0.0,1.1,83,0.00,,,1.07,WUHU216HW,2013-06-22 04:36:00,
2013-06-21 23:41:00,73.6,68.1,29.60,ESE,113,0.4,0.9,83,0.00,,,1.07,WUHU216HW,2013-06-22 04:41:00,
2013-06-21 23:46:00,73.4,68.3,29.60,ESE,113,1.1,1.1,84,0.00,,,1.07,WUHU216HW,2013-06-22 04:46:00,
2013-06-21 23:51:00,73.4,68.3,29.59,SE,135,1.1,1.3,84,0.00,,,1.07,WUHU216HW,2013-06-22 04:51:00,
2013-06-21 23:56:00,73.3,68.1,29.59,ESE,113,0.4,1.3,84,0.00,,,1.07,WUHU216HW,2013-06-22 04:56:00,